sensor_id;sensor_type;location;lat;lon;timestamp;pressure;altitude;pressure_sealevel;temperature;humidity
80509;BME280;69838;52.602;13.434;2023-08-31T00:00:44;100069.16;;;14.26;89.91
80509;BME280;69838;52.602;13.434;2023-08-31T00:01:31;100052.13;;;14.24;88.76
80509;BME280;69838;52.602;13.434;2023-08-31T00:02:18;100077.81;;;14.31;89.79
80509;BME280;69838;52.602;13.434;2023-08-31T00:03:04;100064.72;;;14.25;90.88
80509;BME280;69838;52.602;13.434;2023-08-31T00:03:49;100072.13;;;14.23;91.96
80509;BME280;69838;52.602;13.434;2023-08-31T00:04:36;100074.31;;;14.18;93.38
80509;BME280;69838;52.602;13.434;2023-08-31T00:05:21;100070.47;;;14.21;90.77
80509;BME280;69838;52.602;13.434;2023-08-31T00:06:07;100043.63;;;14.05;89.72
80509;BME280;69838;52.602;13.434;2023-08-31T00:06:53;100070.59;;;14.19;91.86
80509;BME280;69838;52.602;13.434;2023-08-31T00:07:39;100059.34;;;14.12;93.30
80509;BME280;69838;52.602;13.434;2023-08-31T00:08:24;100072.56;;;14.17;91.26
80509;BME280;69838;52.602;13.434;2023-08-31T00:09:09;100065.75;;;14.11;95.26
80509;BME280;69838;52.602;13.434;2023-08-31T00:09:56;100058.41;;;14.01;96.02
80509;BME280;69838;52.602;13.434;2023-08-31T00:10:41;100057.44;;;13.89;96.21
80509;BME280;69838;52.602;13.434;2023-08-31T00:11:26;100055.63;;;13.89;94.93
80509;BME280;69838;52.602;13.434;2023-08-31T00:12:13;100066.13;;;13.94;94.45
80509;BME280;69838;52.602;13.434;2023-08-31T00:12:58;100064.50;;;13.91;94.73
80509;BME280;69838;52.602;13.434;2023-08-31T00:13:44;100069.19;;;13.89;96.76
80509;BME280;69838;52.602;13.434;2023-08-31T00:14:30;100065.72;;;13.87;95.47
80509;BME280;69838;52.602;13.434;2023-08-31T00:15:15;100068.75;;;13.83;96.23
80509;BME280;69838;52.602;13.434;2023-08-31T00:16:01;100054.53;;;13.79;95.81
80509;BME280;69838;52.602;13.434;2023-08-31T00:16:49;100068.66;;;13.84;97.34
80509;BME280;69838;52.602;13.434;2023-08-31T00:17:35;100059.44;;;13.74;96.17
80509;BME280;69838;52.602;13.434;2023-08-31T00:18:20;100058.69;;;13.72;97.37
80509;BME280;69838;52.602;13.434;2023-08-31T00:19:06;100075.03;;;13.83;93.61
80509;BME280;69838;52.602;13.434;2023-08-31T00:19:52;100038.09;;;13.69;93.17
80509;BME280;69838;52.602;13.434;2023-08-31T00:20:37;100060.84;;;13.80;94.70
80509;BME280;69838;52.602;13.434;2023-08-31T00:21:23;100070.50;;;13.84;94.57
80509;BME280;69838;52.602;13.434;2023-08-31T00:22:09;100072.13;;;13.86;94.13
80509;BME280;69838;52.602;13.434;2023-08-31T00:22:54;100058.75;;;13.83;93.67
80509;BME280;69838;52.602;13.434;2023-08-31T00:23:40;100066.78;;;13.85;93.83
80509;BME280;69838;52.602;13.434;2023-08-31T00:24:26;100061.25;;;13.86;95.69
80509;BME280;69838;52.602;13.434;2023-08-31T00:25:18;100063.44;;;13.81;94.73
80509;BME280;69838;52.602;13.434;2023-08-31T00:26:03;100059.75;;;13.82;96.00
80509;BME280;69838;52.602;13.434;2023-08-31T00:26:50;100063.44;;;13.81;95.77
80509;BME280;69838;52.602;13.434;2023-08-31T00:27:36;100056.84;;;13.72;96.42
80509;BME280;69838;52.602;13.434;2023-08-31T00:28:22;100068.13;;;13.79;94.98
80509;BME280;69838;52.602;13.434;2023-08-31T00:29:09;100068.00;;;13.81;95.60
80509;BME280;69838;52.602;13.434;2023-08-31T00:29:54;100049.44;;;13.74;93.84
80509;BME280;69838;52.602;13.434;2023-08-31T00:30:41;100066.16;;;13.81;93.48
80509;BME280;69838;52.602;13.434;2023-08-31T00:31:29;100070.50;;;13.84;93.15
80509;BME280;69838;52.602;13.434;2023-08-31T00:32:17;100051.63;;;13.82;92.85
80509;BME280;69838;52.602;13.434;2023-08-31T00:33:04;100052.59;;;13.81;92.72
80509;BME280;69838;52.602;13.434;2023-08-31T00:33:49;100052.91;;;13.89;93.00
80509;BME280;69838;52.602;13.434;2023-08-31T00:34:35;100061.03;;;13.89;93.28
80509;BME280;69838;52.602;13.434;2023-08-31T00:35:22;100063.75;;;13.89;93.87
80509;BME280;69838;52.602;13.434;2023-08-31T00:36:07;100029.91;;;13.82;92.23
80509;BME280;69838;52.602;13.434;2023-08-31T00:36:54;100056.16;;;13.94;91.83
80509;BME280;69838;52.602;13.434;2023-08-31T00:37:39;100055.91;;;13.98;92.07
80509;BME280;69838;52.602;13.434;2023-08-31T00:38:25;100048.88;;;13.95;92.75
80509;BME280;69838;52.602;13.434;2023-08-31T00:39:11;100050.47;;;13.98;91.80
80509;BME280;69838;52.602;13.434;2023-08-31T00:39:56;100048.75;;;13.97;93.01
80509;BME280;69838;52.602;13.434;2023-08-31T00:40:42;100058.09;;;13.92;94.01
80509;BME280;69838;52.602;13.434;2023-08-31T00:41:30;100044.22;;;13.84;93.78
80509;BME280;69838;52.602;13.434;2023-08-31T00:42:15;100053.75;;;13.90;93.90
80509;BME280;69838;52.602;13.434;2023-08-31T00:43:03;100058.34;;;13.89;93.08
80509;BME280;69838;52.602;13.434;2023-08-31T00:43:49;100056.69;;;13.87;93.13
80509;BME280;69838;52.602;13.434;2023-08-31T00:44:35;100047.91;;;13.83;92.76
80509;BME280;69838;52.602;13.434;2023-08-31T00:45:20;100053.22;;;13.85;95.46
80509;BME280;69838;52.602;13.434;2023-08-31T00:46:07;100050.63;;;13.83;94.84
80509;BME280;69838;52.602;13.434;2023-08-31T00:46:53;100045.19;;;13.83;94.50
80509;BME280;69838;52.602;13.434;2023-08-31T00:47:41;100056.03;;;13.83;94.76
80509;BME280;69838;52.602;13.434;2023-08-31T00:48:28;100048.91;;;13.82;94.23
80509;BME280;69838;52.602;13.434;2023-08-31T00:49:13;100048.91;;;13.82;94.93
80509;BME280;69838;52.602;13.434;2023-08-31T00:49:59;100045.88;;;13.74;95.45
80509;BME280;69838;52.602;13.434;2023-08-31T00:50:46;100036.25;;;13.70;94.94
80509;BME280;69838;52.602;13.434;2023-08-31T00:51:33;100050.97;;;13.79;95.73
80509;BME280;69838;52.602;13.434;2023-08-31T00:52:20;100038.84;;;13.71;96.41
80509;BME280;69838;52.602;13.434;2023-08-31T00:53:07;100050.56;;;13.72;97.61
80509;BME280;69838;52.602;13.434;2023-08-31T00:53:52;100058.69;;;13.72;98.21
80509;BME280;69838;52.602;13.434;2023-08-31T00:54:40;100056.94;;;13.71;97.33
80509;BME280;69838;52.602;13.434;2023-08-31T00:55:27;100049.25;;;13.65;96.75
80509;BME280;69838;52.602;13.434;2023-08-31T00:56:13;100041.88;;;13.67;95.39
80509;BME280;69838;52.602;13.434;2023-08-31T00:56:59;100059.53;;;13.72;96.03
80509;BME280;69838;52.602;13.434;2023-08-31T00:57:44;100046.88;;;13.60;96.02
80509;BME280;69838;52.602;13.434;2023-08-31T00:58:30;100042.09;;;13.64;95.54
80509;BME280;69838;52.602;13.434;2023-08-31T00:59:16;100059.66;;;13.71;95.00
80509;BME280;69838;52.602;13.434;2023-08-31T01:00:03;100051.75;;;13.68;95.26
80509;BME280;69838;52.602;13.434;2023-08-31T01:01:01;100053.47;;;13.69;95.76
80509;BME280;69838;52.602;13.434;2023-08-31T01:01:50;100057.06;;;13.69;95.28
80509;BME280;69838;52.602;13.434;2023-08-31T01:02:47;100056.84;;;13.72;94.90
80509;BME280;69838;52.602;13.434;2023-08-31T01:03:43;100037.66;;;13.63;95.13
80509;BME280;69838;52.602;13.434;2023-08-31T01:04:35;100050.22;;;13.64;95.94
80509;BME280;69838;52.602;13.434;2023-08-31T01:05:29;100049.59;;;13.73;95.62
80509;BME280;69838;52.602;13.434;2023-08-31T01:06:31;100053.47;;;13.69;95.27
80509;BME280;69838;52.602;13.434;2023-08-31T01:07:26;100039.59;;;13.73;94.44
80509;BME280;69838;52.602;13.434;2023-08-31T01:08:24;100049.66;;;13.84;94.48
80509;BME280;69838;52.602;13.434;2023-08-31T01:09:21;100053.97;;;13.87;94.46
80509;BME280;69838;52.602;13.434;2023-08-31T01:10:18;100055.38;;;13.92;94.57
80509;BME280;69838;52.602;13.434;2023-08-31T01:11:09;100058.22;;;13.91;94.23
80509;BME280;69838;52.602;13.434;2023-08-31T01:12:03;100056.59;;;13.88;94.56
80509;BME280;69838;52.602;13.434;2023-08-31T01:12:50;100053.22;;;13.85;94.58
80509;BME280;69838;52.602;13.434;2023-08-31T01:13:40;100071.16;;;13.87;95.09
80509;BME280;69838;52.602;13.434;2023-08-31T01:14:32;100052.38;;;13.84;95.24
80509;BME280;69838;52.602;13.434;2023-08-31T01:15:18;100055.84;;;13.86;95.36
80509;BME280;69838;52.602;13.434;2023-08-31T01:16:06;100064.72;;;13.88;95.36
80509;BME280;69838;52.602;13.434;2023-08-31T01:16:53;100054.88;;;13.87;95.46
80509;BME280;69838;52.602;13.434;2023-08-31T01:17:46;100053.22;;;13.85;95.78
80509;BME280;69838;52.602;13.434;2023-08-31T01:18:33;100063.13;;;13.86;95.50
80509;BME280;69838;52.602;13.434;2023-08-31T01:19:31;100046.63;;;13.76;95.62
80509;BME280;69838;52.602;13.434;2023-08-31T01:20:27;100072.13;;;13.86;96.01
80509;BME280;69838;52.602;13.434;2023-08-31T01:21:20;100073.06;;;13.85;95.80
80509;BME280;69838;52.602;13.434;2023-08-31T01:22:11;100067.66;;;13.85;95.84
80509;BME280;69838;52.602;13.434;2023-08-31T01:23:02;100070.25;;;13.87;95.78
80509;BME280;69838;52.602;13.434;2023-08-31T01:23:54;100060.50;;;13.84;96.14
80509;BME280;69838;52.602;13.434;2023-08-31T01:24:41;100069.50;;;13.85;96.33
80509;BME280;69838;52.602;13.434;2023-08-31T01:25:26;100069.72;;;13.82;96.84
80509;BME280;69838;52.602;13.434;2023-08-31T01:26:13;100068.13;;;13.79;96.25
80509;BME280;69838;52.602;13.434;2023-08-31T01:26:59;100073.66;;;13.78;96.82
80509;BME280;69838;52.602;13.434;2023-08-31T01:27:45;100084.19;;;13.82;96.87
80509;BME280;69838;52.602;13.434;2023-08-31T01:28:31;100072.69;;;13.79;96.71
80509;BME280;69838;52.602;13.434;2023-08-31T01:29:16;100037.97;;;13.58;96.58
80509;BME280;69838;52.602;13.434;2023-08-31T01:30:02;100081.47;;;13.82;96.89
80509;BME280;69838;52.602;13.434;2023-08-31T01:30:48;100075.03;;;13.83;97.03
80509;BME280;69838;52.602;13.434;2023-08-31T01:31:41;100084.06;;;13.84;96.67
80509;BME280;69838;52.602;13.434;2023-08-31T01:32:27;100071.56;;;13.81;96.72
80509;BME280;69838;52.602;13.434;2023-08-31T01:33:14;100086.44;;;13.88;96.53
80509;BME280;69838;52.602;13.434;2023-08-31T01:34:00;100074.28;;;13.81;96.44
80509;BME280;69838;52.602;13.434;2023-08-31T01:34:47;100077.53;;;13.86;96.70
80509;BME280;69838;52.602;13.434;2023-08-31T01:35:42;100082.22;;;13.84;97.12
80509;BME280;69838;52.602;13.434;2023-08-31T01:36:32;100090.88;;;13.89;96.64
80509;BME280;69838;52.602;13.434;2023-08-31T01:37:26;100078.50;;;13.85;96.42
80509;BME280;69838;52.602;13.434;2023-08-31T01:38:18;100094.47;;;13.90;97.45
80509;BME280;69838;52.602;13.434;2023-08-31T01:39:12;100097.81;;;13.93;95.96
80509;BME280;69838;52.602;13.434;2023-08-31T01:40:02;100097.81;;;13.93;95.80
80509;BME280;69838;52.602;13.434;2023-08-31T01:40:54;100087.19;;;13.90;95.63
80509;BME280;69838;52.602;13.434;2023-08-31T01:41:46;100099.78;;;13.91;95.47
80509;BME280;69838;52.602;13.434;2023-08-31T01:42:34;100099.03;;;13.89;95.75
80509;BME280;69838;52.602;13.434;2023-08-31T01:43:21;100099.03;;;13.89;95.99
80509;BME280;69838;52.602;13.434;2023-08-31T01:44:08;100098.13;;;13.89;95.71
80509;BME280;69838;52.602;13.434;2023-08-31T01:44:58;100097.28;;;13.88;95.48
80509;BME280;69838;52.602;13.434;2023-08-31T01:45:46;100090.13;;;13.87;95.23
80509;BME280;69838;52.602;13.434;2023-08-31T01:46:33;100087.00;;;13.81;95.30
80509;BME280;69838;52.602;13.434;2023-08-31T01:47:19;100094.03;;;13.83;95.14
80509;BME280;69838;52.602;13.434;2023-08-31T01:48:05;100044.50;;;13.55;95.65
80509;BME280;69838;52.602;13.434;2023-08-31T01:48:51;100095.88;;;13.83;95.52
80509;BME280;69838;52.602;13.434;2023-08-31T01:49:37;100093.50;;;13.78;95.39
80509;BME280;69838;52.602;13.434;2023-08-31T01:50:23;100103.16;;;13.82;94.96
80509;BME280;69838;52.602;13.434;2023-08-31T01:51:10;100102.41;;;13.80;95.37
80509;BME280;69838;52.602;13.434;2023-08-31T01:51:55;100103.28;;;13.81;95.19
80509;BME280;69838;52.602;13.434;2023-08-31T01:52:40;100098.69;;;13.81;95.21
80509;BME280;69838;52.602;13.434;2023-08-31T01:53:27;100099.69;;;13.80;95.16
80509;BME280;69838;52.602;13.434;2023-08-31T01:54:13;100100.44;;;13.82;95.28
80509;BME280;69838;52.602;13.434;2023-08-31T01:54:59;100106.94;;;13.80;95.43
80509;BME280;69838;52.602;13.434;2023-08-31T01:55:45;100100.03;;;13.75;95.65
80509;BME280;69838;52.602;13.434;2023-08-31T01:56:30;100104.22;;;13.80;95.60
80509;BME280;69838;52.602;13.434;2023-08-31T01:57:16;100106.31;;;13.76;95.21
80509;BME280;69838;52.602;13.434;2023-08-31T01:58:03;100098.91;;;13.78;95.29
80509;BME280;69838;52.602;13.434;2023-08-31T01:58:48;100101.13;;;13.73;95.26
80509;BME280;69838;52.602;13.434;2023-08-31T01:59:34;100109.91;;;13.77;95.23
80509;BME280;69838;52.602;13.434;2023-08-31T02:00:21;100099.28;;;13.73;94.70
80509;BME280;69838;52.602;13.434;2023-08-31T02:01:06;100099.16;;;13.75;95.19
80509;BME280;69838;52.602;13.434;2023-08-31T02:01:51;100103.69;;;13.74;95.34
80509;BME280;69838;52.602;13.434;2023-08-31T02:02:37;100100.22;;;13.72;95.63
80509;BME280;69838;52.602;13.434;2023-08-31T02:03:23;100101.34;;;13.70;95.22
80509;BME280;69838;52.602;13.434;2023-08-31T02:04:09;100097.75;;;13.69;95.52
80509;BME280;69838;52.602;13.434;2023-08-31T02:04:54;100097.88;;;13.68;95.63
80509;BME280;69838;52.602;13.434;2023-08-31T02:05:40;100086.59;;;13.61;96.21
80509;BME280;69838;52.602;13.434;2023-08-31T02:06:26;100085.94;;;13.58;96.73
80509;BME280;69838;52.602;13.434;2023-08-31T02:07:11;100104.59;;;13.62;97.69
80509;BME280;69838;52.602;13.434;2023-08-31T02:07:58;100100.25;;;13.60;97.37
80509;BME280;69838;52.602;13.434;2023-08-31T02:08:43;100099.50;;;13.58;97.79
80509;BME280;69838;52.602;13.434;2023-08-31T02:09:30;100098.53;;;13.59;98.75
80509;BME280;69838;52.602;13.434;2023-08-31T02:10:17;100074.34;;;13.43;98.18
80509;BME280;69838;52.602;13.434;2023-08-31T02:11:02;100100.69;;;13.53;98.15
80509;BME280;69838;52.602;13.434;2023-08-31T02:11:47;100106.53;;;13.47;98.08
80509;BME280;69838;52.602;13.434;2023-08-31T02:12:34;100108.50;;;13.45;98.09
80509;BME280;69838;52.602;13.434;2023-08-31T02:13:21;100107.09;;;13.40;98.62
80509;BME280;69838;52.602;13.434;2023-08-31T02:14:06;100115.88;;;13.43;99.87
80509;BME280;69838;52.602;13.434;2023-08-31T02:14:53;100115.88;;;13.43;98.66
80509;BME280;69838;52.602;13.434;2023-08-31T02:15:39;100119.78;;;13.39;98.92
80509;BME280;69838;52.602;13.434;2023-08-31T02:16:24;100115.78;;;13.32;98.20
80509;BME280;69838;52.602;13.434;2023-08-31T02:17:10;100104.44;;;13.25;99.08
80509;BME280;69838;52.602;13.434;2023-08-31T02:17:56;100124.94;;;13.29;99.20
80509;BME280;69838;52.602;13.434;2023-08-31T02:18:41;100124.06;;;13.29;100.00
80509;BME280;69838;52.602;13.434;2023-08-31T02:19:27;100127.75;;;13.28;100.00
80509;BME280;69838;52.602;13.434;2023-08-31T02:20:13;100131.44;;;13.27;100.00
80509;BME280;69838;52.602;13.434;2023-08-31T02:20:59;100128.19;;;13.22;99.98
80509;BME280;69838;52.602;13.434;2023-08-31T02:21:45;100132.97;;;13.18;98.74
80509;BME280;69838;52.602;13.434;2023-08-31T02:22:33;100117.34;;;13.09;99.15
80509;BME280;69838;52.602;13.434;2023-08-31T02:23:18;100125.47;;;13.09;99.02
80509;BME280;69838;52.602;13.434;2023-08-31T02:24:05;100115.38;;;12.98;98.84
80509;BME280;69838;52.602;13.434;2023-08-31T02:24:52;100125.09;;;13.01;98.60
80509;BME280;69838;52.602;13.434;2023-08-31T02:25:38;100129.53;;;12.89;98.91
80509;BME280;69838;52.602;13.434;2023-08-31T02:26:24;100132.69;;;12.95;99.82
80509;BME280;69838;52.602;13.434;2023-08-31T02:27:09;100130.50;;;12.88;99.48
80509;BME280;69838;52.602;13.434;2023-08-31T02:27:55;100130.69;;;12.85;99.60
80509;BME280;69838;52.602;13.434;2023-08-31T02:28:41;100127.47;;;12.79;100.00
80509;BME280;69838;52.602;13.434;2023-08-31T02:29:26;100134.06;;;12.88;100.00
80509;BME280;69838;52.602;13.434;2023-08-31T02:30:12;100139.28;;;12.91;100.00
80509;BME280;69838;52.602;13.434;2023-08-31T02:31:00;100144.91;;;12.88;100.00
80509;BME280;69838;52.602;13.434;2023-08-31T02:31:45;100141.34;;;12.88;100.00
80509;BME280;69838;52.602;13.434;2023-08-31T02:32:31;100131.34;;;12.75;100.00
80509;BME280;69838;52.602;13.434;2023-08-31T02:33:18;100133.09;;;12.76;100.00
80509;BME280;69838;52.602;13.434;2023-08-31T02:34:03;100145.44;;;12.80;100.00
80509;BME280;69838;52.602;13.434;2023-08-31T02:34:49;100141.97;;;12.78;100.00
80509;BME280;69838;52.602;13.434;2023-08-31T02:35:35;100141.97;;;12.78;100.00
80509;BME280;69838;52.602;13.434;2023-08-31T02:36:21;100126.53;;;12.66;100.00
80509;BME280;69838;52.602;13.434;2023-08-31T02:37:06;100136.41;;;12.67;100.00
80509;BME280;69838;52.602;13.434;2023-08-31T02:37:52;100137.19;;;12.69;100.00
80509;BME280;69838;52.602;13.434;2023-08-31T02:38:38;100142.78;;;12.66;100.00
80509;BME280;69838;52.602;13.434;2023-08-31T02:39:24;100137.56;;;12.63;100.00
80509;BME280;69838;52.602;13.434;2023-08-31T02:40:11;100138.56;;;12.62;100.00
80509;BME280;69838;52.602;13.434;2023-08-31T02:40:57;100140.28;;;12.63;100.00
80509;BME280;69838;52.602;13.434;2023-08-31T02:41:43;100134.00;;;12.63;100.00
80509;BME280;69838;52.602;13.434;2023-08-31T02:42:28;100133.25;;;12.60;100.00
80509;BME280;69838;52.602;13.434;2023-08-31T02:43:14;100129.78;;;12.58;99.70
80509;BME280;69838;52.602;13.434;2023-08-31T02:44:00;100133.25;;;12.60;99.11
80509;BME280;69838;52.602;13.434;2023-08-31T02:44:45;100143.22;;;12.60;99.28
80509;BME280;69838;52.602;13.434;2023-08-31T02:45:31;100139.84;;;12.56;100.00
80509;BME280;69838;52.602;13.434;2023-08-31T02:46:17;100138.19;;;12.54;99.44
80509;BME280;69838;52.602;13.434;2023-08-31T02:47:03;100138.19;;;12.54;99.50
80509;BME280;69838;52.602;13.434;2023-08-31T02:47:49;100137.75;;;12.47;98.75
80509;BME280;69838;52.602;13.434;2023-08-31T02:48:35;100143.81;;;12.51;98.91
80509;BME280;69838;52.602;13.434;2023-08-31T02:49:20;100147.50;;;12.50;98.73
80509;BME280;69838;52.602;13.434;2023-08-31T02:50:07;100152.03;;;12.49;99.14
80509;BME280;69838;52.602;13.434;2023-08-31T02:50:52;100145.66;;;12.50;99.44
80509;BME280;69838;52.602;13.434;2023-08-31T02:51:38;100144.69;;;12.51;99.84
80509;BME280;69838;52.602;13.434;2023-08-31T02:52:24;100146.81;;;12.46;98.89
80509;BME280;69838;52.602;13.434;2023-08-31T02:53:09;100140.56;;;12.46;98.56
80509;BME280;69838;52.602;13.434;2023-08-31T02:53:55;100152.13;;;12.48;98.65
80509;BME280;69838;52.602;13.434;2023-08-31T02:54:41;100154.09;;;12.46;99.02
80509;BME280;69838;52.602;13.434;2023-08-31T02:55:28;100153.19;;;12.45;99.11
80509;BME280;69838;52.602;13.434;2023-08-31T02:56:13;100152.34;;;12.45;99.05
80509;BME280;69838;52.602;13.434;2023-08-31T02:56:59;100147.91;;;12.44;98.74
80509;BME280;69838;52.602;13.434;2023-08-31T02:57:45;100143.66;;;12.39;99.14
80509;BME280;69838;52.602;13.434;2023-08-31T02:58:30;100145.41;;;12.40;100.00
80509;BME280;69838;52.602;13.434;2023-08-31T02:59:17;100147.25;;;12.40;99.45
80509;BME280;69838;52.602;13.434;2023-08-31T03:00:03;100155.47;;;12.38;99.48
80509;BME280;69838;52.602;13.434;2023-08-31T03:00:48;100148.47;;;12.34;99.74
80509;BME280;69838;52.602;13.434;2023-08-31T03:01:35;100145.78;;;12.34;99.24
80509;BME280;69838;52.602;13.434;2023-08-31T03:02:20;100157.59;;;12.33;99.36
80509;BME280;69838;52.602;13.434;2023-08-31T03:03:07;100156.41;;;12.37;100.00
80509;BME280;69838;52.602;13.434;2023-08-31T03:03:53;100126.09;;;12.18;99.65
80509;BME280;69838;52.602;13.434;2023-08-31T03:04:38;100145.25;;;12.29;99.95
80509;BME280;69838;52.602;13.434;2023-08-31T03:05:25;100147.94;;;12.29;99.77
80509;BME280;69838;52.602;13.434;2023-08-31T03:06:11;100143.50;;;12.28;99.78
80509;BME280;69838;52.602;13.434;2023-08-31T03:06:56;100143.50;;;12.28;100.00
80509;BME280;69838;52.602;13.434;2023-08-31T03:07:42;100150.66;;;12.29;100.00
80509;BME280;69838;52.602;13.434;2023-08-31T03:08:28;100151.59;;;12.28;100.00
80509;BME280;69838;52.602;13.434;2023-08-31T03:09:13;100147.16;;;12.27;100.00
80509;BME280;69838;52.602;13.434;2023-08-31T03:10:00;100150.84;;;12.26;99.95
80509;BME280;69838;52.602;13.434;2023-08-31T03:10:46;100155.28;;;12.27;99.81
80509;BME280;69838;52.602;13.434;2023-08-31T03:11:32;100160.69;;;12.27;100.00
80509;BME280;69838;52.602;13.434;2023-08-31T03:12:18;100164.38;;;12.26;100.00
80509;BME280;69838;52.602;13.434;2023-08-31T03:13:04;100162.63;;;12.25;100.00
80509;BME280;69838;52.602;13.434;2023-08-31T03:13:50;100148.53;;;12.20;100.00
80509;BME280;69838;52.602;13.434;2023-08-31T03:14:36;100173.53;;;12.23;100.00
80509;BME280;69838;52.602;13.434;2023-08-31T03:15:21;100158.38;;;12.21;100.00
80509;BME280;69838;52.602;13.434;2023-08-31T03:16:07;100158.38;;;12.21;100.00
80509;BME280;69838;52.602;13.434;2023-08-31T03:16:53;100134.06;;;12.07;100.00
80509;BME280;69838;52.602;13.434;2023-08-31T03:17:38;100155.88;;;12.18;100.00
80509;BME280;69838;52.602;13.434;2023-08-31T03:18:24;100160.09;;;12.22;100.00
80509;BME280;69838;52.602;13.434;2023-08-31T03:19:10;100162.81;;;12.22;100.00
80509;BME280;69838;52.602;13.434;2023-08-31T03:19:56;100155.69;;;12.07;100.00
80509;BME280;69838;52.602;13.434;2023-08-31T03:20:41;100167.09;;;12.12;100.00
80509;BME280;69838;52.602;13.434;2023-08-31T03:21:27;100160.72;;;12.13;100.00
80509;BME280;69838;52.602;13.434;2023-08-31T03:22:12;100156.47;;;12.09;100.00
80509;BME280;69838;52.602;13.434;2023-08-31T03:22:58;100152.31;;;12.03;100.00
80509;BME280;69838;52.602;13.434;2023-08-31T03:23:44;100147.00;;;12.01;100.00
80509;BME280;69838;52.602;13.434;2023-08-31T03:24:31;100169.81;;;12.12;100.00
80509;BME280;69838;52.602;13.434;2023-08-31T03:25:17;100159.38;;;12.06;100.00
80509;BME280;69838;52.602;13.434;2023-08-31T03:26:07;100162.47;;;12.14;100.00
80509;BME280;69838;52.602;13.434;2023-08-31T03:26:53;100164.41;;;12.12;100.00
80509;BME280;69838;52.602;13.434;2023-08-31T03:27:39;100166.34;;;12.10;100.00
80509;BME280;69838;52.602;13.434;2023-08-31T03:28:25;100159.28;;;12.07;100.00
80509;BME280;69838;52.602;13.434;2023-08-31T03:29:10;100156.75;;;12.04;100.00
80509;BME280;69838;52.602;13.434;2023-08-31T03:29:56;100158.41;;;12.07;100.00
80509;BME280;69838;52.602;13.434;2023-08-31T03:30:42;100165.66;;;12.06;100.00
80509;BME280;69838;52.602;13.434;2023-08-31T03:31:30;100159.59;;;12.02;100.00
80509;BME280;69838;52.602;13.434;2023-08-31T03:32:17;100165.75;;;12.05;100.00
80509;BME280;69838;52.602;13.434;2023-08-31T03:33:02;100151.06;;;11.94;100.00
80509;BME280;69838;52.602;13.434;2023-08-31T03:33:49;100155.97;;;11.88;100.00
80509;BME280;69838;52.602;13.434;2023-08-31T03:34:36;100172.72;;;11.94;100.00
80509;BME280;69838;52.602;13.434;2023-08-31T03:35:21;100176.59;;;11.90;100.00
80509;BME280;69838;52.602;13.434;2023-08-31T03:36:11;100157.22;;;11.82;100.00
80509;BME280;69838;52.602;13.434;2023-08-31T03:36:58;100158.31;;;11.79;100.00
80509;BME280;69838;52.602;13.434;2023-08-31T03:37:46;100160.41;;;11.74;100.00
80509;BME280;69838;52.602;13.434;2023-08-31T03:38:32;100180.41;;;11.86;100.00
80509;BME280;69838;52.602;13.434;2023-08-31T03:39:22;100175.97;;;11.85;100.00
80509;BME280;69838;52.602;13.434;2023-08-31T03:40:08;100176.06;;;11.83;100.00
80509;BME280;69838;52.602;13.434;2023-08-31T03:40:54;100178.84;;;11.82;100.00
80509;BME280;69838;52.602;13.434;2023-08-31T03:41:42;100180.78;;;11.80;100.00
80509;BME280;69838;52.602;13.434;2023-08-31T03:42:27;100186.19;;;11.80;100.00
80509;BME280;69838;52.602;13.434;2023-08-31T03:43:14;100179.03;;;11.79;100.00
80509;BME280;69838;52.602;13.434;2023-08-31T03:43:59;100177.31;;;11.78;100.00
80509;BME280;69838;52.602;13.434;2023-08-31T03:44:44;100178.28;;;11.77;100.00
80509;BME280;69838;52.602;13.434;2023-08-31T03:45:31;100182.34;;;11.84;100.00
80509;BME280;69838;52.602;13.434;2023-08-31T03:46:16;100171.91;;;11.78;100.00
80509;BME280;69838;52.602;13.434;2023-08-31T03:47:02;100183.41;;;11.81;100.00
80509;BME280;69838;52.602;13.434;2023-08-31T03:47:48;100176.16;;;11.82;100.00
80509;BME280;69838;52.602;13.434;2023-08-31T03:48:33;100178.84;;;11.82;100.00
80509;BME280;69838;52.602;13.434;2023-08-31T03:49:19;100184.25;;;11.82;100.00
80509;BME280;69838;52.602;13.434;2023-08-31T03:50:06;100172.78;;;11.78;100.00
80509;BME280;69838;52.602;13.434;2023-08-31T03:50:52;100178.84;;;11.82;100.00
80509;BME280;69838;52.602;13.434;2023-08-31T03:51:37;100183.09;;;11.86;100.00
80509;BME280;69838;52.602;13.434;2023-08-31T03:52:23;100187.56;;;11.87;100.00
80509;BME280;69838;52.602;13.434;2023-08-31T03:53:09;100188.31;;;11.89;100.00
80509;BME280;69838;52.602;13.434;2023-08-31T03:53:54;100182.06;;;11.89;100.00
80509;BME280;69838;52.602;13.434;2023-08-31T03:54:41;100190.88;;;11.92;100.00
80509;BME280;69838;52.602;13.434;2023-08-31T03:55:27;100191.66;;;11.94;100.00
80509;BME280;69838;52.602;13.434;2023-08-31T03:56:12;100180.91;;;11.93;100.00
80509;BME280;69838;52.602;13.434;2023-08-31T03:57:00;100182.19;;;12.01;100.00
80509;BME280;69838;52.602;13.434;2023-08-31T03:57:46;100188.34;;;12.03;100.00
80509;BME280;69838;52.602;13.434;2023-08-31T03:58:31;100176.94;;;11.98;100.00
80509;BME280;69838;52.602;13.434;2023-08-31T03:59:17;100186.31;;;12.07;100.00
80509;BME280;69838;52.602;13.434;2023-08-31T04:00:04;100187.19;;;12.08;100.00
80509;BME280;69838;52.602;13.434;2023-08-31T04:00:53;100196.88;;;12.12;100.00
80509;BME280;69838;52.602;13.434;2023-08-31T04:01:40;100191.81;;;12.06;100.00